Muir Army Air Field (Fort Indiantown Gap) Airport
KMUI : now visible

Airfield :











YOU CAN JOIN US ON...

 
LOGIN :

Register | Disclaimer

   EN    FR    IT 

 









Legend :    VFR   Marginal VFR   IFR   Intensive IFR   Very Intensive IFR
Visi :
Ceiling :
>= 8 km
>= 3000ft
5 to 8 km
1000 to 3000 ft
1500m to 5 km
500 to 1000 ft
800 to 1500m
200 to 500 ft
< 800m
< 200 ft
Symbols :   Thunderstorms  Fog  Heavy snow  Heavy precipitations  Wind > 20 kt






- Airport Elevation : 488 ft


KMUI - Muir Army Air Field (Fort Indiantown Gap)

CURRENT METAR :
  • 191656Z AUTO 00000KT 10SM CLR 14/03 A3008 RMK AO2 SLP191 T01400029

EXPIRED METARs :
  • 191556Z AUTO 00000KT 10SM CLR 13/03 A3010 RMK AO2 SLP197 T01320027
  • 191456Z AUTO 00000KT 7SM CLR 11/03 A3011 RMK AO2 SLP201 T01140029 50001
  • 191356Z AUTO 00000KT 10SM CLR 09/04 A3012 RMK AO2 SLP205 T00850037

TAF TAF KMUI
Valid from the 19 at 11:00 until the 20 at 17:00 UTC


191100Z 1911/2017 VRB06KT 9999 FEW180 QNH3001INS
BECMG 2001/2002 VRB06KT 9999 SCT200 QNH3002INS TX12/1920Z TN00/1911Z



MET'MAP, your aeronautical weather chart ! - Copyright ORBIFLY December 2007 - Disclaimer

ORBIFLY MET'MAP TEAM :

Programming & Development : Alexandra Zaïnal
Concept & Development : Baudouin d'Aumeries
Co-Development & Prog : Marc-Olivier Méhu
Technical & hardware support : Manuel Goepfert

Contact : metmap@orbifly.com




SOURCES & CREDITS :

   NOAA       Earth
Advisory